Sea Success — VRS4325 — position and weather

sailwx.info

Track history (hours):
 
Tides and Currents Weather Stations Pressure Air Temp Water Temp Dewpoint Dewpoint Depression Visibility Wind Speed Wind Dir Waves Ship Positions

Sea Success

Last reported at 2017-Nov-20 00:06 UTC. Time now 2017-Nov-23 03:58 UTC.
Position N 22°19' E 114°09'.

Length 27 m.

MMSI: 477995071.

Date/timePositionNaut miles runAvg speedWind from/ knotsBaromVisibWave heightAir tempDewpointWater temp
2017-Nov-20 00:06N 22°19' E 114°09'110.3
2017-Nov-20 00:00N 22°18' E 114°09'0 0.1
2017-Nov-19 15:43N 22°17' E 114°10'0 0.6
2017-Nov-19 15:30N 22°17' E 114°10'0 0.3
2017-Nov-19 14:05N 22°18' E 114°09'0 6.6
2017-Nov-19 14:00N 22°17' E 114°10'0 0.0
2017-Nov-19 13:26N 22°17' E 114°10'0 0.0
2017-Nov-19 12:50N 22°17' E 114°10'0 0.0
2017-Nov-19 12:24N 22°17' E 114°10'1 0.6
2017-Nov-19 10:50N 22°18' E 114°09'1 1.6
2017-Nov-19 10:24N 22°17' E 114°09'1 0.2
2017-Nov-19 07:26N 22°18' E 114°09'1 1.8
2017-Nov-19 07:00N 22°17' E 114°10'0 0.2
2017-Nov-19 04:04N 22°18' E 114°09'0 6.6
2017-Nov-19 04:00N 22°17' E 114°10'1 0.6
2017-Nov-19 02:24N 22°18' E 114°09'0 1.2
2017-Nov-19 02:00N 22°18' E 114°09'0 0.0
2017-Nov-19 01:30N 22°18' E 114°09'0 0.0
2017-Nov-19 01:00N 22°18' E 114°09'1 1.1
2017-Nov-19 00:29N 22°19' E 114°09'7 6.9
2017-Nov-18 23:31N 22°17' E 114°02'615.2
2017-Nov-18 23:06N 22°18' E 114°09'1 7.5
2017-Nov-18 23:00N 22°17' E 114°10'1 0.1
2017-Nov-18 16:37N 22°18' E 114°09'1 5.8
2017-Nov-18 16:30N 22°17' E 114°10'0 0.0
2017-Nov-18 16:00N 22°17' E 114°10'1 0.6
2017-Nov-18 14:51N 22°18' E 114°09'1 1.8
2017-Nov-18 14:30N 22°17' E 114°10'1 0.1
2017-Nov-18 08:54N 22°18' E 114°09'0 0.2
2017-Nov-18 07:44N 22°18' E 114°09'2 7.3
2017-Nov-18 07:29N 22°20' E 114°09'2 4.4
2017-Nov-18 06:57N 22°17' E 114°10'0 0.2
2017-Nov-18 04:19N 22°18' E 114°09'0 1.3
2017-Nov-18 03:59N 22°17' E 114°10'0 0.2
2017-Nov-18 01:21N 22°18' E 114°09'0 0.0
2017-Nov-18 00:06N 22°18' E 114°09'0 4.2
2017-Nov-18 00:00N 22°17' E 114°10'1 0.1
2017-Nov-17 16:38N 22°18' E 114°09'1 5.1
2017-Nov-17 16:29N 22°17' E 114°10'0 0.0
2017-Nov-17 15:59N 22°17' E 114°10'1 0.6
2017-Nov-17 14:52N 22°18' E 114°09'1 1.9
2017-Nov-17 14:30N 22°17' E 114°10'1 0.2
2017-Nov-17 11:19N 22°18' E 114°09'0 0.3
2017-Nov-17 10:26N 22°18' E 114°09'0 0.4
2017-Nov-17 09:27N 22°18' E 114°09'1 1.4
2017-Nov-17 09:00N 22°17' E 114°09'2 3.1
2017-Nov-17 08:27N 22°19' E 114°09'1 1.4
2017-Nov-17 07:21N 22°18' E 114°09'1 1.9
2017-Nov-17 06:59N 22°17' E 114°10'1 0.3
2017-Nov-17 04:23N 22°18' E 114°09'1 2.0
2017-Nov-17 04:01N 22°17' E 114°10'0 0.2
2017-Nov-17 01:20N 22°18' E 114°09'0 0.7
2017-Nov-17 01:00N 22°17' E 114°09'0 0.5
2017-Nov-17 00:06N 22°18' E 114°09'1 6.7
2017-Nov-17 00:00N 22°17' E 114°10'1 0.1
2017-Nov-16 16:36N 22°18' E 114°09'1 4.3
2017-Nov-16 16:27N 22°17' E 114°10'0 0.0
2017-Nov-16 15:56N 22°17' E 114°10'0 0.4
2017-Nov-16 14:50N 22°18' E 114°09'0 1.2
2017-Nov-16 14:30N 22°17' E 114°10'0 0.1
2017-Nov-16 09:24N 22°18' E 114°09'0 0.6
2017-Nov-16 08:59N 22°17' E 114°10'0 0.2
2017-Nov-16 07:20N 22°18' E 114°09'0 1.5
2017-Nov-16 07:00N 22°17' E 114°10'1 0.2
2017-Nov-16 04:21N 22°18' E 114°09'1 1.9
2017-Nov-16 04:00N 22°17' E 114°10'1 0.3
2017-Nov-16 01:21N 22°18' E 114°09'1 1.8
2017-Nov-16 01:00N 22°17' E 114°10'0 0.5
2017-Nov-16 00:06N 22°18' E 114°09'1 2.3
2017-Nov-15 23:51N 22°17' E 114°10'1 0.1
2017-Nov-15 16:38N 22°18' E 114°09'1 3.9
2017-Nov-15 16:26N 22°17' E 114°10'0 0.0
2017-Nov-15 15:57N 22°17' E 114°10'1 0.9
2017-Nov-15 14:54N 22°18' E 114°09'1 2.5
2017-Nov-15 14:30N 22°17' E 114°10'0 0.2
2017-Nov-15 13:08N 22°17' E 114°09'0 2.2
2017-Nov-15 13:00N 22°17' E 114°10'0 0.0
2017-Nov-15 12:28N 22°17' E 114°10'0 0.0
2017-Nov-15 12:00N 22°17' E 114°10'0 0.0
2017-Nov-15 11:26N 22°17' E 114°10'0 0.5
2017-Nov-15 10:26N 22°18' E 114°09'0 0.1
2017-Nov-15 09:25N 22°18' E 114°09'1 1.8
2017-Nov-15 08:58N 22°18' E 114°09'0 0.6
2017-Nov-15 08:19N 22°18' E 114°09'0 0.4
2017-Nov-15 07:21N 22°18' E 114°09'1 1.6
2017-Nov-15 06:57N 22°17' E 114°10'0 0.2
2017-Nov-15 04:20N 22°18' E 114°09'0 1.2
2017-Nov-15 03:59N 22°17' E 114°10'1 0.3
2017-Nov-15 01:21N 22°18' E 114°09'0 0.0
2017-Nov-15 00:06N 22°18' E 114°09'1 4.3
2017-Nov-14 23:57N 22°17' E 114°10'1 0.1
2017-Nov-14 16:37N 22°18' E 114°09'1 6.6
2017-Nov-14 16:30N 22°17' E 114°10'0 0.0
2017-Nov-14 16:00N 22°17' E 114°10'0 0.3
2017-Nov-14 14:50N 22°18' E 114°09'0 1.2
2017-Nov-14 14:30N 22°17' E 114°10'1 0.5
2017-Nov-14 13:22N 22°18' E 114°09'1 1.5
2017-Nov-14 12:57N 22°17' E 114°10'0 0.0
2017-Nov-14 12:28N 22°17' E 114°10'0 0.0
2017-Nov-14 11:43N 22°17' E 114°10'0 0.0
2017-Nov-14 11:29N 22°17' E 114°10'0 0.4
2017-Nov-14 10:25N 22°18' E 114°09'3 4.1
2017-Nov-14 09:35N 22°16' E 114°06'318.2
2017-Nov-14 09:25N 22°18' E 114°09'0 0.0
2017-Nov-14 07:23N 22°18' E 114°09'1 1.8
2017-Nov-14 07:00N 22°17' E 114°10'8 3.5
2017-Nov-14 04:50N 22°16' E 114°02'714.6
2017-Nov-14 04:21N 22°18' E 114°09'1 1.8
2017-Nov-14 03:59N 22°17' E 114°10'0 0.2
2017-Nov-14 01:19N 22°18' E 114°09'0 1.2
2017-Nov-14 01:00N 22°17' E 114°10'1 0.8
2017-Nov-14 00:07N 22°18' E 114°09'1 7.1
2017-Nov-14 00:00N 22°17' E 114°10'1 0.0
2017-Nov-13 01:21N 22°18' E 114°09'0 0.2
2017-Nov-13 00:06N 22°18' E 114°09'1 7.1
2017-Nov-13 00:00N 22°17' E 114°10'7 0.9
2017-Nov-12 16:13N 22°16' E 114°02'714.4
2017-Nov-12 15:45N 22°18' E 114°09'0 1.8
2017-Nov-12 15:30N 22°17' E 114°10'6 5.2
2017-Nov-12 14:22N 22°17' E 114°03'616.5
2017-Nov-12 14:00N 22°17' E 114°10'0 0.0
2017-Nov-12 13:30N 22°17' E 114°10'0 0.0
2017-Nov-12 12:58N 22°17' E 114°10'0 0.0
2017-Nov-12 12:30N 22°17' E 114°10'1 0.5
2017-Nov-12 10:49N 22°18' E 114°09'1 1.5
2017-Nov-12 10:18N 22°17' E 114°10'0 0.2
2017-Nov-12 07:25N 22°18' E 114°09'0 1.2
2017-Nov-12 07:00N 22°17' E 114°10'1 0.2
2017-Nov-12 04:05N 22°18' E 114°09'1 6.5
2017-Nov-12 03:59N 22°17' E 114°10'1 0.6
2017-Nov-12 02:18N 22°18' E 114°09'0 0.0
2017-Nov-12 01:59N 22°18' E 114°09'0 0.0
2017-Nov-12 01:30N 22°18' E 114°09'0 0.0
2017-Nov-12 01:00N 22°18' E 114°09'1 1.8
2017-Nov-12 00:30N 22°19' E 114°09'2 1.1
2017-Nov-11 23:05N 22°18' E 114°09'0 4.8
2017-Nov-11 23:00N 22°17' E 114°10'0 0.1
2017-Nov-11 16:36N 22°18' E 114°09'0 0.0
2017-Nov-11 11:34N 22°18' E 114°09'0 0.1
2017-Nov-11 10:28N 22°18' E 114°09'0 0.1
2017-Nov-11 09:25N 22°18' E 114°09'0 0.7
2017-Nov-11 09:00N 22°17' E 114°10'0 0.1
2017-Nov-11 07:21N 22°18' E 114°09'0 1.0
2017-Nov-11 07:00N 22°17' E 114°10'0 0.1
2017-Nov-11 04:21N 22°17' E 114°09'0 0.7
2017-Nov-11 04:01N 22°17' E 114°10'0 0.2
2017-Nov-11 01:20N 22°18' E 114°09'0 0.1
2017-Nov-11 00:04N 22°18' E 114°09'0 5.3
2017-Nov-11 00:00N 22°17' E 114°10'1 0.1
2017-Nov-10 16:36N 22°18' E 114°09'1 3.7
2017-Nov-10 16:27N 22°17' E 114°10'0 0.0
2017-Nov-10 16:00N 22°17' E 114°10'1 0.6
2017-Nov-10 14:52N 22°18' E 114°09'1 1.4
2017-Nov-10 14:24N 22°17' E 114°10'0 0.3
2017-Nov-10 13:21N 22°18' E 114°09'0 1.1
2017-Nov-10 12:58N 22°17' E 114°10'0 0.0
2017-Nov-10 12:24N 22°17' E 114°10'0 0.0
2017-Nov-10 11:53N 22°17' E 114°10'0 0.0
2017-Nov-10 11:20N 22°17' E 114°10'0 0.2
2017-Nov-10 10:24N 22°17' E 114°09'0 0.4
2017-Nov-10 09:25N 22°18' E 114°09'0 0.1
2017-Nov-10 07:23N 22°18' E 114°09'1 1.8
2017-Nov-10 06:56N 22°17' E 114°10'0 0.2
2017-Nov-10 04:19N 22°18' E 114°09'0 1.2
2017-Nov-10 04:00N 22°17' E 114°10'1 0.3
2017-Nov-10 01:21N 22°18' E 114°09'1 2.2
2017-Nov-10 01:00N 22°17' E 114°10'  
Track history (hours):
 
Tides and Currents Weather Stations Pressure Air Temp Water Temp Dewpoint Dewpoint Depression Visibility Wind Speed Wind Dir Waves Ship Positions

Sea Success

Last reported at 2017-Nov-20 00:06 UTC. Time now 2017-Nov-23 03:58 UTC.
Position N 22°19' E 114°09'.

Length 27 m.

MMSI: 477995071.

Date/timePositionNaut miles runAvg speedWind from/ knotsBaromVisibWave heightAir tempDewpointWater temp
2017-Nov-20 00:06N 22°19' E 114°09'110.3
2017-Nov-20 00:00N 22°18' E 114°09'0 0.1
2017-Nov-19 15:43N 22°17' E 114°10'0 0.6
2017-Nov-19 15:30N 22°17' E 114°10'0 0.3
2017-Nov-19 14:05N 22°18' E 114°09'0 6.6
2017-Nov-19 14:00N 22°17' E 114°10'0 0.0
2017-Nov-19 13:26N 22°17' E 114°10'0 0.0
2017-Nov-19 12:50N 22°17' E 114°10'0 0.0
2017-Nov-19 12:24N 22°17' E 114°10'1 0.6
2017-Nov-19 10:50N 22°18' E 114°09'1 1.6
2017-Nov-19 10:24N 22°17' E 114°09'1 0.2
2017-Nov-19 07:26N 22°18' E 114°09'1 1.8
2017-Nov-19 07:00N 22°17' E 114°10'0 0.2
2017-Nov-19 04:04N 22°18' E 114°09'0 6.6
2017-Nov-19 04:00N 22°17' E 114°10'1 0.6
2017-Nov-19 02:24N 22°18' E 114°09'0 1.2
2017-Nov-19 02:00N 22°18' E 114°09'0 0.0
2017-Nov-19 01:30N 22°18' E 114°09'0 0.0
2017-Nov-19 01:00N 22°18' E 114°09'1 1.1
2017-Nov-19 00:29N 22°19' E 114°09'7 6.9
2017-Nov-18 23:31N 22°17' E 114°02'615.2
2017-Nov-18 23:06N 22°18' E 114°09'1 7.5
2017-Nov-18 23:00N 22°17' E 114°10'1 0.1
2017-Nov-18 16:37N 22°18' E 114°09'1 5.8
2017-Nov-18 16:30N 22°17' E 114°10'0 0.0
2017-Nov-18 16:00N 22°17' E 114°10'1 0.6
2017-Nov-18 14:51N 22°18' E 114°09'1 1.8
2017-Nov-18 14:30N 22°17' E 114°10'1 0.1
2017-Nov-18 08:54N 22°18' E 114°09'0 0.2
2017-Nov-18 07:44N 22°18' E 114°09'2 7.3
2017-Nov-18 07:29N 22°20' E 114°09'2 4.4
2017-Nov-18 06:57N 22°17' E 114°10'0 0.2
2017-Nov-18 04:19N 22°18' E 114°09'0 1.3
2017-Nov-18 03:59N 22°17' E 114°10'0 0.2
2017-Nov-18 01:21N 22°18' E 114°09'0 0.0
2017-Nov-18 00:06N 22°18' E 114°09'0 4.2
2017-Nov-18 00:00N 22°17' E 114°10'1 0.1
2017-Nov-17 16:38N 22°18' E 114°09'1 5.1
2017-Nov-17 16:29N 22°17' E 114°10'0 0.0
2017-Nov-17 15:59N 22°17' E 114°10'1 0.6
2017-Nov-17 14:52N 22°18' E 114°09'1 1.9
2017-Nov-17 14:30N 22°17' E 114°10'1 0.2
2017-Nov-17 11:19N 22°18' E 114°09'0 0.3
2017-Nov-17 10:26N 22°18' E 114°09'0 0.4
2017-Nov-17 09:27N 22°18' E 114°09'1 1.4
2017-Nov-17 09:00N 22°17' E 114°09'2 3.1
2017-Nov-17 08:27N 22°19' E 114°09'1 1.4
2017-Nov-17 07:21N 22°18' E 114°09'1 1.9
2017-Nov-17 06:59N 22°17' E 114°10'1 0.3
2017-Nov-17 04:23N 22°18' E 114°09'1 2.0
2017-Nov-17 04:01N 22°17' E 114°10'0 0.2
2017-Nov-17 01:20N 22°18' E 114°09'0 0.7
2017-Nov-17 01:00N 22°17' E 114°09'0 0.5
2017-Nov-17 00:06N 22°18' E 114°09'1 6.7
2017-Nov-17 00:00N 22°17' E 114°10'1 0.1
2017-Nov-16 16:36N 22°18' E 114°09'1 4.3
2017-Nov-16 16:27N 22°17' E 114°10'0 0.0
2017-Nov-16 15:56N 22°17' E 114°10'0 0.4
2017-Nov-16 14:50N 22°18' E 114°09'0 1.2
2017-Nov-16 14:30N 22°17' E 114°10'0 0.1
2017-Nov-16 09:24N 22°18' E 114°09'0 0.6
2017-Nov-16 08:59N 22°17' E 114°10'0 0.2
2017-Nov-16 07:20N 22°18' E 114°09'0 1.5
2017-Nov-16 07:00N 22°17' E 114°10'1 0.2
2017-Nov-16 04:21N 22°18' E 114°09'1 1.9
2017-Nov-16 04:00N 22°17' E 114°10'1 0.3
2017-Nov-16 01:21N 22°18' E 114°09'1 1.8
2017-Nov-16 01:00N 22°17' E 114°10'0 0.5
2017-Nov-16 00:06N 22°18' E 114°09'1 2.3
2017-Nov-15 23:51N 22°17' E 114°10'1 0.1
2017-Nov-15 16:38N 22°18' E 114°09'1 3.9
2017-Nov-15 16:26N 22°17' E 114°10'0 0.0
2017-Nov-15 15:57N 22°17' E 114°10'1 0.9
2017-Nov-15 14:54N 22°18' E 114°09'1 2.5
2017-Nov-15 14:30N 22°17' E 114°10'0 0.2
2017-Nov-15 13:08N 22°17' E 114°09'0 2.2
2017-Nov-15 13:00N 22°17' E 114°10'0 0.0
2017-Nov-15 12:28N 22°17' E 114°10'0 0.0
2017-Nov-15 12:00N 22°17' E 114°10'0 0.0
2017-Nov-15 11:26N 22°17' E 114°10'0 0.5
2017-Nov-15 10:26N 22°18' E 114°09'0 0.1
2017-Nov-15 09:25N 22°18' E 114°09'1 1.8
2017-Nov-15 08:58N 22°18' E 114°09'0 0.6
2017-Nov-15 08:19N 22°18' E 114°09'0 0.4
2017-Nov-15 07:21N 22°18' E 114°09'1 1.6
2017-Nov-15 06:57N 22°17' E 114°10'0 0.2
2017-Nov-15 04:20N 22°18' E 114°09'0 1.2
2017-Nov-15 03:59N 22°17' E 114°10'1 0.3
2017-Nov-15 01:21N 22°18' E 114°09'0 0.0
2017-Nov-15 00:06N 22°18' E 114°09'1 4.3
2017-Nov-14 23:57N 22°17' E 114°10'1 0.1
2017-Nov-14 16:37N 22°18' E 114°09'1 6.6
2017-Nov-14 16:30N 22°17' E 114°10'0 0.0
2017-Nov-14 16:00N 22°17' E 114°10'0 0.3
2017-Nov-14 14:50N 22°18' E 114°09'0 1.2
2017-Nov-14 14:30N 22°17' E 114°10'1 0.5
2017-Nov-14 13:22N 22°18' E 114°09'1 1.5
2017-Nov-14 12:57N 22°17' E 114°10'0 0.0
2017-Nov-14 12:28N 22°17' E 114°10'0 0.0
2017-Nov-14 11:43N 22°17' E 114°10'0 0.0
2017-Nov-14 11:29N 22°17' E 114°10'0 0.4
2017-Nov-14 10:25N 22°18' E 114°09'3 4.1
2017-Nov-14 09:35N 22°16' E 114°06'318.2
2017-Nov-14 09:25N 22°18' E 114°09'0 0.0
2017-Nov-14 07:23N 22°18' E 114°09'1 1.8
2017-Nov-14 07:00N 22°17' E 114°10'8 3.5
2017-Nov-14 04:50N 22°16' E 114°02'714.6
2017-Nov-14 04:21N 22°18' E 114°09'1 1.8
2017-Nov-14 03:59N 22°17' E 114°10'0 0.2
2017-Nov-14 01:19N 22°18' E 114°09'0 1.2
2017-Nov-14 01:00N 22°17' E 114°10'1 0.8
2017-Nov-14 00:07N 22°18' E 114°09'1 7.1
2017-Nov-14 00:00N 22°17' E 114°10'1 0.0
2017-Nov-13 01:21N 22°18' E 114°09'0 0.2
2017-Nov-13 00:06N 22°18' E 114°09'1 7.1
2017-Nov-13 00:00N 22°17' E 114°10'7 0.9
2017-Nov-12 16:13N 22°16' E 114°02'714.4
2017-Nov-12 15:45N 22°18' E 114°09'0 1.8
2017-Nov-12 15:30N 22°17' E 114°10'6 5.2
2017-Nov-12 14:22N 22°17' E 114°03'616.5
2017-Nov-12 14:00N 22°17' E 114°10'0 0.0
2017-Nov-12 13:30N 22°17' E 114°10'0 0.0
2017-Nov-12 12:58N 22°17' E 114°10'0 0.0
2017-Nov-12 12:30N 22°17' E 114°10'1 0.5
2017-Nov-12 10:49N 22°18' E 114°09'1 1.5
2017-Nov-12 10:18N 22°17' E 114°10'0 0.2
2017-Nov-12 07:25N 22°18' E 114°09'0 1.2
2017-Nov-12 07:00N 22°17' E 114°10'1 0.2
2017-Nov-12 04:05N 22°18' E 114°09'1 6.5
2017-Nov-12 03:59N 22°17' E 114°10'1 0.6
2017-Nov-12 02:18N 22°18' E 114°09'0 0.0
2017-Nov-12 01:59N 22°18' E 114°09'0 0.0
2017-Nov-12 01:30N 22°18' E 114°09'0 0.0
2017-Nov-12 01:00N 22°18' E 114°09'1 1.8
2017-Nov-12 00:30N 22°19' E 114°09'2 1.1
2017-Nov-11 23:05N 22°18' E 114°09'0 4.8
2017-Nov-11 23:00N 22°17' E 114°10'0 0.1
2017-Nov-11 16:36N 22°18' E 114°09'0 0.0
2017-Nov-11 11:34N 22°18' E 114°09'0 0.1
2017-Nov-11 10:28N 22°18' E 114°09'0 0.1
2017-Nov-11 09:25N 22°18' E 114°09'0 0.7
2017-Nov-11 09:00N 22°17' E 114°10'0 0.1
2017-Nov-11 07:21N 22°18' E 114°09'0 1.0
2017-Nov-11 07:00N 22°17' E 114°10'0 0.1
2017-Nov-11 04:21N 22°17' E 114°09'0 0.7
2017-Nov-11 04:01N 22°17' E 114°10'0 0.2
2017-Nov-11 01:20N 22°18' E 114°09'0 0.1
2017-Nov-11 00:04N 22°18' E 114°09'0 5.3
2017-Nov-11 00:00N 22°17' E 114°10'1 0.1
2017-Nov-10 16:36N 22°18' E 114°09'1 3.7
2017-Nov-10 16:27N 22°17' E 114°10'0 0.0
2017-Nov-10 16:00N 22°17' E 114°10'1 0.6
2017-Nov-10 14:52N 22°18' E 114°09'1 1.4
2017-Nov-10 14:24N 22°17' E 114°10'0 0.3
2017-Nov-10 13:21N 22°18' E 114°09'0 1.1
2017-Nov-10 12:58N 22°17' E 114°10'0 0.0
2017-Nov-10 12:24N 22°17' E 114°10'0 0.0
2017-Nov-10 11:53N 22°17' E 114°10'0 0.0
2017-Nov-10 11:20N 22°17' E 114°10'0 0.2
2017-Nov-10 10:24N 22°17' E 114°09'0 0.4
2017-Nov-10 09:25N 22°18' E 114°09'0 0.1
2017-Nov-10 07:23N 22°18' E 114°09'1 1.8
2017-Nov-10 06:56N 22°17' E 114°10'0 0.2
2017-Nov-10 04:19N 22°18' E 114°09'0 1.2
2017-Nov-10 04:00N 22°17' E 114°10'1 0.3
2017-Nov-10 01:21N 22°18' E 114°09'1 2.2
2017-Nov-10 01:00N 22°17' E 114°10'  

Dump ship's entire track history